Time;durP1;ratioP1;P1;durP2;ratioP2;P2;SDS_P1;SDS_P2;PMS_P1;PMS_P2;Temp;Humidity;BMP_temperature;BMP_pressure;BME280_temperature;BME280_humidity;BME280_pressure;Samples;Min_cycle;Max_cycle;Signal;HPM_P1;HPM_P2
2021/05/06 00:09:40;;;;;;;3.97;2.00;;;;;;;-139.48;100.00;61774.03;4977015;28;20042;-67
2021/05/06 00:33:12;;;;;;;2.88;1.90;;;;;;;-139.48;100.00;61774.03;4977028;28;20050;-67
2021/05/06 00:35:56;;;;;;;3.47;2.15;;;;;;;-139.48;100.00;61774.03;4962602;28;20050;-67
2021/05/06 00:38:49;;;;;;;4.05;1.92;;;;;;;-139.48;100.00;61774.03;4976840;28;20113;-67
2021/05/06 00:41:59;;;;;;;4.90;1.95;;;;;;;-139.48;100.00;61774.03;4963670;28;20045;-67
2021/05/06 00:59:56;;;;;;;2.63;1.95;;;;;;;-139.48;100.00;61774.03;4975924;28;20129;-67
2021/05/06 01:05:49;;;;;;;4.90;1.83;;;;;;;-139.48;100.00;61774.03;4976529;28;20045;-67
2021/05/06 01:11:56;;;;;;;4.53;2.25;;;;;;;-139.48;100.00;61774.03;4958654;28;20053;-67
2021/05/06 01:14:40;;;;;;;5.97;2.03;;;;;;;-139.48;100.00;61774.03;4975429;28;20046;-67
2021/05/06 01:17:24;;;;;;;5.47;2.30;;;;;;;-139.48;100.00;61774.03;4976131;28;20057;-67
2021/05/06 01:20:09;;;;;;;3.22;2.00;;;;;;;-139.48;100.00;61774.03;4976356;28;20069;-67
2021/05/06 01:22:53;;;;;;;2.78;1.95;;;;;;;-139.48;100.00;61774.03;4961779;28;20057;-67
2021/05/06 01:25:38;;;;;;;3.80;2.03;;;;;;;-139.48;100.00;61774.03;4976496;28;20088;-67
2021/05/06 01:28:25;;;;;;;4.20;2.05;;;;;;;-139.48;100.00;61774.03;4975310;28;20539;-67
2021/05/06 01:31:19;;;;;;;3.42;2.00;;;;;;;-139.48;100.00;61774.03;4962269;28;20165;-67
2021/05/06 01:36:59;;;;;;;2.67;1.52;;;;;;;-139.48;100.00;61774.03;4975321;28;20053;-67
2021/05/06 01:42:46;;;;;;;8.15;2.20;;;;;;;-139.48;100.00;61774.03;4974685;28;20467;-67
2021/05/06 01:46:09;;;;;;;4.97;2.20;;;;;;;-139.48;100.00;61774.03;4974971;28;20089;-67
2021/05/06 02:00:26;;;;;;;2.63;1.60;;;;;;;-139.48;100.00;61774.03;4974804;28;20073;-67
2021/05/06 02:03:10;;;;;;;2.90;1.70;;;;;;;-139.48;100.00;61774.03;4974135;28;20058;-67
2021/05/06 02:05:54;;;;;;;3.33;1.90;;;;;;;-139.48;100.00;61774.03;4974772;28;20510;-67
2021/05/06 02:08:38;;;;;;;4.13;2.10;;;;;;;-139.48;100.00;61774.03;5012099;23;20057;-65
2021/05/06 02:11:23;;;;;;;4.75;2.20;;;;;;;-139.48;100.00;61774.03;4993672;28;20410;-66
2021/05/06 02:14:09;;;;;;;4.03;1.80;;;;;;;-139.48;100.00;61774.03;4993560;28;20134;-66
2021/05/06 02:16:53;;;;;;;3.42;1.80;;;;;;;-139.48;100.00;61774.03;4994465;28;20134;-68
2021/05/06 02:19:39;;;;;;;6.63;1.98;;;;;;;-139.48;100.00;61774.03;4993470;28;20073;-67
2021/05/06 02:22:23;;;;;;;5.05;1.75;;;;;;;-139.48;100.00;61774.03;4993421;28;20133;-67
2021/05/06 02:25:07;;;;;;;3.60;1.48;;;;;;;-139.48;100.00;61774.03;4992921;28;20180;-67
2021/05/06 02:27:51;;;;;;;2.67;1.52;;;;;;;-139.48;100.00;61774.03;4979547;28;20054;-67
2021/05/06 02:30:36;;;;;;;3.22;1.88;;;;;;;-139.48;100.00;61774.03;4994289;28;20045;-67
2021/05/06 02:33:20;;;;;;;4.60;2.00;;;;;;;-139.48;100.00;61774.03;4993069;28;20411;-67
2021/05/06 02:36:04;;;;;;;2.75;1.75;;;;;;;-139.48;100.00;61774.03;4993253;28;20108;-68
2021/05/06 02:38:48;;;;;;;2.83;1.75;;;;;;;-139.48;100.00;61774.03;4979061;28;20104;-66
2021/05/06 02:41:32;;;;;;;4.22;1.50;;;;;;;-139.48;100.00;61774.03;4993067;28;20163;-67
2021/05/06 02:44:16;;;;;;;3.88;1.63;;;;;;;-139.48;100.00;61774.03;4994040;28;20415;-67
2021/05/06 02:47:00;;;;;;;3.47;1.70;;;;;;;-139.48;100.00;61774.03;4992973;28;20114;-66
2021/05/06 02:49:46;;;;;;;3.80;1.70;;;;;;;-139.48;100.00;61774.03;4992987;28;20534;-67
2021/05/06 02:52:34;;;;;;;2.45;1.25;;;;;;;-139.48;100.00;61774.03;4992694;28;20057;-66
2021/05/06 02:55:28;;;;;;;2.55;1.80;;;;;;;-139.48;100.00;61774.03;4993917;28;20433;-67
2021/05/06 02:58:21;;;;;;;3.08;2.00;;;;;;;-139.48;100.00;61774.03;4993654;28;20187;-67
2021/05/06 03:04:09;;;;;;;2.38;1.55;;;;;;;-139.48;100.00;61774.03;4993517;28;20513;-67
2021/05/06 03:22:39;;;;;;;4.10;2.00;;;;;;;-139.48;100.00;61774.03;4993320;28;20049;-65
2021/05/06 03:24:34;;;;;;;4.57;1.50;;;;;;;-139.48;100.00;61774.03;4992377;28;20123;-67
2021/05/06 03:27:19;;;;;;;3.55;1.90;;;;;;;-139.48;100.00;61774.03;4992328;28;20484;-68
2021/05/06 03:41:53;;;;;;;2.75;1.80;;;;;;;-139.48;100.00;61774.03;4992090;28;20049;-67
2021/05/06 03:45:01;;;;;;;4.00;1.95;;;;;;;-139.48;100.00;61774.03;4993229;28;20045;-68
2021/05/06 04:15:30;;;;;;;5.10;2.42;;;;;;;-139.48;100.00;61774.03;4991869;28;20488;-67
2021/05/06 04:18:27;;;;;;;7.38;2.88;;;;;;;-139.48;100.00;61774.03;4991998;28;20188;-67
2021/05/06 04:21:39;;;;;;;3.53;2.15;;;;;;;-139.48;100.00;61774.03;4992868;28;20191;-67
2021/05/06 04:27:38;;;;;;;5.93;2.75;;;;;;;-139.48;100.00;61774.03;4991844;28;20064;-67
2021/05/06 04:30:56;;;;;;;5.78;2.70;;;;;;;-139.48;100.00;61774.03;4992550;28;20093;-67
2021/05/06 04:54:37;;;;;;;5.35;2.80;;;;;;;-139.48;100.00;61774.03;4996084;28;20053;-67
2021/05/06 05:03:56;;;;;;;8.30;3.05;;;;;;;-139.48;100.00;61774.03;4995748;28;20101;-67
2021/05/06 05:06:16;;;;;;;5.00;2.55;;;;;;;-139.48;100.00;61774.03;4994519;28;20053;-68
2021/05/06 05:12:11;;;;;;;3.75;2.50;;;;;;;-139.48;100.00;61774.03;4994917;28;20553;-66
2021/05/06 05:20:45;;;;;;;12.20;3.40;;;;;;;-139.48;100.00;61774.03;4994759;28;20069;-66
2021/05/06 05:23:36;;;;;;;6.47;2.42;;;;;;;-139.48;100.00;61774.03;4994738;28;20162;-66
2021/05/06 05:26:20;;;;;;;6.30;3.03;;;;;;;-139.48;100.00;61774.03;4995447;28;20161;-66
2021/05/06 05:29:04;;;;;;;7.13;2.88;;;;;;;-139.48;100.00;61774.03;4995252;28;20049;-65
2021/05/06 05:31:47;;;;;;;10.25;2.90;;;;;;;-139.48;100.00;61774.03;4994236;28;20050;-66
2021/05/06 05:34:37;;;;;;;7.75;3.15;;;;;;;-139.48;100.00;61774.03;4995509;28;20470;-66
2021/05/06 05:37:23;;;;;;;5.47;3.17;;;;;;;-139.48;100.00;61774.03;4994236;28;20050;-64
2021/05/06 05:55:03;;;;;;;7.15;3.05;;;;;;;-139.48;100.00;61774.03;4994860;28;20052;-67
2021/05/06 05:57:52;;;;;;;8.45;3.30;;;;;;;-139.48;100.00;61774.03;4994844;28;20138;-66
2021/05/06 06:00:36;;;;;;;8.77;3.20;;;;;;;-139.48;100.00;61774.03;4994713;28;20065;-68
2021/05/06 06:03:19;;;;;;;34.50;12.32;;;;;;;-139.48;100.00;61774.03;4994917;28;20132;-68
2021/05/06 06:06:04;;;;;;;5.93;3.40;;;;;;;-139.48;100.00;61774.03;4993917;28;20068;-67
2021/05/06 06:08:48;;;;;;;6.18;3.42;;;;;;;-139.48;100.00;61774.03;4994570;28;20049;-65
2021/05/06 06:11:33;;;;;;;12.57;4.47;;;;;;;-139.48;100.00;61774.03;4993773;28;20057;-67
2021/05/06 06:14:23;;;;;;;9.98;5.78;;;;;;;-139.48;100.00;61774.03;4994631;28;20049;-63
2021/05/06 06:17:07;;;;;;;5.60;4.07;;;;;;;-139.48;100.00;61774.03;4980416;28;20146;-67
2021/05/06 06:19:51;;;;;;;7.75;3.90;;;;;;;-139.48;100.00;61774.03;4993724;28;20108;-67
2021/05/06 06:22:36;;;;;;;7.18;3.50;;;;;;;-139.48;100.00;61774.03;4979917;28;20050;-68
2021/05/06 06:25:20;;;;;;;5.70;3.33;;;;;;;-139.48;100.00;61774.03;4993403;28;20058;-67
2021/05/06 06:28:09;;;;;;;7.35;3.60;;;;;;;-139.48;100.00;61774.03;4994238;28;20106;-67
2021/05/06 06:30:54;;;;;;;5.65;3.28;;;;;;;-139.48;100.00;61774.03;4993637;28;20052;-64
2021/05/06 06:33:38;;;;;;;5.97;3.45;;;;;;;-139.48;100.00;61774.03;4993304;28;20048;-67
2021/05/06 06:36:23;;;;;;;5.25;3.13;;;;;;;-139.48;100.00;61774.03;4979432;28;20072;-67
2021/05/06 06:39:06;;;;;;;4.85;3.22;;;;;;;-139.48;100.00;61774.03;4992937;28;20049;-65
2021/05/06 06:41:51;;;;;;;6.05;3.22;;;;;;;-139.48;100.00;61774.03;4994543;28;20053;-67
2021/05/06 06:44:36;;;;;;;6.40;3.55;;;;;;;-139.48;100.00;61774.03;4994155;28;20573;-67
2021/05/06 06:47:20;;;;;;;7.25;3.65;;;;;;;-139.48;100.00;61774.03;4992846;28;20049;-67
2021/05/06 06:50:04;;;;;;;6.05;3.78;;;;;;;-139.48;100.00;61774.03;4994054;28;20049;-67
2021/05/06 06:52:49;;;;;;;6.32;3.45;;;;;;;-139.48;100.00;61774.03;4993276;28;20057;-68
2021/05/06 06:55:33;;;;;;;8.50;3.80;;;;;;;-139.48;100.00;61774.03;4993818;28;20053;-68
2021/05/06 06:58:17;;;;;;;9.10;4.57;;;;;;;-139.48;100.00;61774.03;4993733;28;20514;-67
2021/05/06 07:01:01;;;;;;;6.25;3.75;;;;;;;-139.48;100.00;61774.03;4993957;28;20053;-67
2021/05/06 07:03:46;;;;;;;5.55;3.30;;;;;;;-139.48;100.00;61774.03;4993660;28;20092;-68
2021/05/06 07:06:30;;;;;;;8.32;3.88;;;;;;;-139.48;100.00;61774.03;4993050;28;20133;-67
2021/05/06 07:09:14;;;;;;;9.45;3.85;;;;;;;-139.48;100.00;61774.03;4993083;28;20093;-67
2021/05/06 07:11:58;;;;;;;7.18;3.97;;;;;;;-139.48;100.00;61774.03;4992835;28;20076;-67
2021/05/06 07:14:42;;;;;;;7.80;4.10;;;;;;;-139.48;100.00;61774.03;4992962;28;20498;-68
2021/05/06 07:17:26;;;;;;;4.90;3.22;;;;;;;-139.48;100.00;61774.03;4992967;28;20141;-66
2021/05/06 07:20:11;;;;;;;6.80;3.72;;;;;;;-139.48;100.00;61774.03;4993882;28;20468;-68
2021/05/06 07:22:55;;;;;;;5.50;3.50;;;;;;;-139.48;100.00;61774.03;4979347;28;20129;-66
2021/05/06 07:25:39;;;;;;;6.88;3.00;;;;;;;-139.48;100.00;61774.03;4997512;28;20438;-68
2021/05/06 07:28:31;;;;;;;6.15;3.42;;;;;;;-139.48;100.00;61774.03;5001098;28;20048;-67
2021/05/06 07:31:15;;;;;;;7.55;3.75;;;;;;;-139.48;100.00;61774.03;4997464;28;20049;-67
2021/05/06 07:33:59;;;;;;;;;;;;;;;-139.48;100.00;61774.03;4979234;28;20148;-65
2021/05/06 07:36:43;;;;;;;8.48;4.03;;;;;;;-139.48;100.00;61774.03;4993801;28;19921;-66
2021/05/06 07:39:27;;;;;;;5.82;3.63;;;;;;;-139.48;100.00;61774.03;4993197;28;20070;-68
2021/05/06 07:42:11;;;;;;;6.95;4.00;;;;;;;-139.48;100.00;61774.03;4992278;28;20061;-68
2021/05/06 07:44:55;;;;;;;7.82;3.85;;;;;;;-139.48;100.00;61774.03;4993679;28;20100;-68
2021/05/06 07:47:39;;;;;;;8.10;3.55;;;;;;;-139.48;100.00;61774.03;4992351;28;20097;-66
2021/05/06 07:50:23;;;;;;;5.72;3.45;;;;;;;-139.48;100.00;61774.03;4993224;28;20105;-67
2021/05/06 07:53:10;;;;;;;8.02;4.00;;;;;;;-139.48;100.00;61774.03;4978594;28;20049;-66
2021/05/06 07:55:55;;;;;;;6.93;3.58;;;;;;;-139.48;100.00;61774.03;4993304;28;20128;-67
2021/05/06 07:58:39;;;;;;;6.38;3.72;;;;;;;-139.48;100.00;61774.03;4992000;28;20081;-67
2021/05/06 08:01:23;;;;;;;5.32;3.42;;;;;;;-139.48;100.00;61774.03;4993302;28;20112;-67
2021/05/06 08:04:07;;;;;;;6.82;3.95;;;;;;;-139.48;100.00;61774.03;4993374;28;20108;-67
2021/05/06 08:06:51;;;;;;;6.47;3.33;;;;;;;-139.48;100.00;61774.03;4993105;28;20080;-67
2021/05/06 08:09:35;;;;;;;5.75;3.85;;;;;;;-139.48;100.00;61774.03;5017200;22;20562;-66
2021/05/06 08:12:20;;;;;;;6.95;3.85;;;;;;;-139.48;100.00;61774.03;4993151;28;20118;-66
2021/05/06 08:15:08;;;;;;;7.35;3.85;;;;;;;-139.48;100.00;61774.03;4992163;28;20049;-66
2021/05/06 08:17:53;;;;;;;6.45;3.80;;;;;;;-139.48;100.00;61774.03;4991807;28;20169;-66
2021/05/06 08:20:37;;;;;;;6.28;3.60;;;;;;;-139.48;100.00;61774.03;4993618;28;20143;-66
2021/05/06 08:23:21;;;;;;;5.30;3.38;;;;;;;-139.48;100.00;61774.03;4996548;28;20096;-66
2021/05/06 08:26:05;;;;;;;6.55;3.72;;;;;;;-139.48;100.00;61774.03;4995597;28;20553;-66
2021/05/06 08:28:50;;;;;;;7.63;3.20;;;;;;;-139.48;100.00;61774.03;4981896;28;20077;-66
2021/05/06 08:31:34;;;;;;;6.22;3.60;;;;;;;-139.48;100.00;61774.03;4995748;28;20046;-66
2021/05/06 08:34:18;;;;;;;7.82;3.20;;;;;;;-139.48;100.00;61774.03;4995873;28;20052;-66
2021/05/06 08:37:02;;;;;;;5.13;3.65;;;;;;;-139.48;100.00;61774.03;4981737;28;20057;-66
2021/05/06 08:39:46;;;;;;;6.30;4.00;;;;;;;-139.48;100.00;61774.03;4996314;28;20053;-66
2021/05/06 08:42:30;;;;;;;6.57;3.90;;;;;;;-139.48;100.00;61774.03;4981659;28;20105;-66
2021/05/06 08:45:15;;;;;;;6.03;3.80;;;;;;;-139.48;100.00;61774.03;4995214;28;20077;-66
2021/05/06 08:47:59;;;;;;;5.72;4.20;;;;;;;-139.48;100.00;61774.03;4995084;28;20049;-66
2021/05/06 08:50:46;;;;;;;6.40;3.78;;;;;;;-139.48;100.00;61774.03;4995175;28;20065;-66
2021/05/06 08:53:29;;;;;;;10.20;3.80;;;;;;;-139.48;100.00;61774.03;4981816;28;20100;-66
2021/05/06 08:56:13;;;;;;;5.10;3.72;;;;;;;-139.48;100.00;61774.03;4995313;28;20462;-66
2021/05/06 08:58:57;;;;;;;5.50;3.35;;;;;;;-139.48;100.00;61774.03;4995065;28;20049;-66
2021/05/06 09:01:41;;;;;;;5.80;3.30;;;;;;;-139.48;100.00;61774.03;4995163;28;20606;-66
2021/05/06 09:04:30;;;;;;;7.68;3.70;;;;;;;-139.48;100.00;61774.03;4995159;28;20165;-66
2021/05/06 09:07:15;;;;;;;6.70;3.33;;;;;;;-139.48;100.00;61774.03;4995044;28;20044;-66
2021/05/06 09:09:59;;;;;;;10.80;4.30;;;;;;;-139.48;100.00;61774.03;4995868;28;20053;-66
2021/05/06 09:12:42;;;;;;;5.18;3.80;;;;;;;-139.48;100.00;61774.03;4995942;28;20422;-66
2021/05/06 09:15:26;;;;;;;8.45;3.30;;;;;;;-139.48;100.00;61774.03;4994818;28;20472;-66
2021/05/06 09:18:33;;;;;;;8.68;4.18;;;;;;;-139.48;100.00;61774.03;4994494;28;20049;-66
2021/05/06 09:21:33;;;;;;;6.13;3.58;;;;;;;-139.48;100.00;61774.03;4980968;28;20060;-65
2021/05/06 09:24:24;;;;;;;8.23;4.53;;;;;;;-139.48;100.00;61774.03;4995687;28;20411;-65
2021/05/06 09:27:08;;;;;;;7.57;3.47;;;;;;;-139.48;100.00;61774.03;4995796;28;20162;-66
2021/05/06 09:29:52;;;;;;;6.60;4.03;;;;;;;-139.48;100.00;61774.03;4995312;28;20518;-66
2021/05/06 09:32:35;;;;;;;6.93;3.85;;;;;;;-139.48;100.00;61774.03;4995175;28;20077;-65
2021/05/06 09:35:19;;;;;;;8.27;4.30;;;;;;;-139.48;100.00;61774.03;4994431;28;20096;-66
2021/05/06 09:38:03;;;;;;;6.18;3.65;;;;;;;-139.48;100.00;61774.03;4994136;28;20116;-66
2021/05/06 09:40:47;;;;;;;5.80;4.15;;;;;;;-139.48;100.00;61774.03;4994348;28;20056;-65
2021/05/06 09:43:42;;;;;;;8.95;3.63;;;;;;;-139.48;100.00;61774.03;4980351;28;20050;-66
2021/05/06 09:46:37;;;;;;;7.97;4.45;;;;;;;-139.48;100.00;61774.03;4994175;28;20116;-66
2021/05/06 09:49:22;;;;;;;8.73;4.05;;;;;;;-139.48;100.00;61774.03;4995306;28;20049;-65
2021/05/06 09:52:06;;;;;;;8.52;4.10;;;;;;;-139.48;100.00;61774.03;4995027;28;20105;-65
2021/05/06 09:54:54;;;;;;;11.05;4.03;;;;;;;-139.48;100.00;61774.03;4995144;28;20132;-66
2021/05/06 09:57:38;;;;;;;8.88;3.92;;;;;;;-139.48;100.00;61774.03;4993638;28;20066;-66
2021/05/06 10:00:22;;;;;;;6.00;4.10;;;;;;;-139.48;100.00;61774.03;4995284;28;20049;-66
2021/05/06 10:03:12;;;;;;;8.73;3.92;;;;;;;-139.48;100.00;61774.03;4994020;28;20096;-66
2021/05/06 10:05:55;;;;;;;9.13;4.07;;;;;;;-139.48;100.00;61774.03;4993905;28;20093;-66
2021/05/06 10:08:39;;;;;;;6.43;3.35;;;;;;;-139.48;100.00;61774.03;4993662;28;20044;-66
2021/05/06 10:11:23;;;;;;;10.85;4.28;;;;;;;-139.48;100.00;61774.03;4993798;28;20514;-66
2021/05/06 10:14:09;;;;;;;10.18;4.15;;;;;;;-139.48;100.00;61774.03;4994799;28;20053;-66
2021/05/06 10:16:53;;;;;;;5.75;3.45;;;;;;;-139.48;100.00;61774.03;4980009;28;20061;-66
2021/05/06 10:19:39;;;;;;;6.88;3.97;;;;;;;-139.48;100.00;61774.03;4994461;28;20057;-66
2021/05/06 10:22:28;;;;;;;8.77;4.18;;;;;;;-139.48;100.00;61774.03;4993898;28;20494;-66
2021/05/06 10:25:12;;;;;;;7.68;4.15;;;;;;;-139.48;100.00;61774.03;4993624;28;20135;-66
2021/05/06 10:27:56;;;;;;;11.93;4.07;;;;;;;-139.48;100.00;61774.03;4993365;28;20104;-66
2021/05/06 10:30:41;;;;;;;8.10;4.00;;;;;;;-139.48;100.00;61774.03;4993457;28;20484;-66
2021/05/06 10:33:26;;;;;;;8.13;4.13;;;;;;;-139.48;100.00;61774.03;4979577;28;20067;-66
2021/05/06 10:36:11;;;;;;;7.55;4.05;;;;;;;-139.48;100.00;61774.03;4979646;28;20462;-66
2021/05/06 10:38:55;;;;;;;8.07;3.60;;;;;;;-139.48;100.00;61774.03;4993069;28;20054;-66
2021/05/06 10:41:40;;;;;;;6.85;3.90;;;;;;;-139.48;100.00;61774.03;4993328;28;20116;-66
2021/05/06 10:44:35;;;;;;;9.18;3.88;;;;;;;-139.48;100.00;61774.03;4992560;28;20053;-66
2021/05/06 10:47:38;;;;;;;8.45;4.13;;;;;;;-139.48;100.00;61774.03;4993996;28;20069;-66
2021/05/06 10:50:23;;;;;;;7.47;3.38;;;;;;;-139.48;100.00;61774.03;4994184;28;20100;-66
2021/05/06 10:53:08;;;;;;;6.60;3.60;;;;;;;-139.48;100.00;61774.03;4992796;28;20080;-66
2021/05/06 10:55:54;;;;;;;10.60;3.60;;;;;;;-139.48;100.00;61774.03;4993200;28;20053;-66
2021/05/06 10:58:39;;;;;;;7.32;3.78;;;;;;;-139.48;100.00;61774.03;4993979;28;20104;-66
2021/05/06 11:01:23;;;;;;;6.00;3.53;;;;;;;-139.48;100.00;61774.03;4979061;28;20053;-65
2021/05/06 11:04:09;;;;;;;9.65;3.47;;;;;;;-139.48;100.00;61774.03;4992832;28;20049;-66
2021/05/06 11:07:15;;;;;;;9.43;2.85;;;;;;;-139.48;100.00;61774.03;4992617;28;20048;-66
2021/05/06 11:10:02;;;;;;;7.30;3.70;;;;;;;-139.48;100.00;61774.03;4993395;28;20156;-66
2021/05/06 11:12:55;;;;;;;7.82;2.10;;;;;;;-139.48;100.00;61774.03;4992802;28;20170;-66
2021/05/06 11:15:39;;;;;;;5.00;2.38;;;;;;;-139.48;100.00;61774.03;4993449;28;20045;-66
2021/05/06 11:18:44;;;;;;;6.93;3.30;;;;;;;-139.48;100.00;61774.03;4992260;28;20089;-66
2021/05/06 11:21:34;;;;;;;4.57;2.63;;;;;;;-139.48;100.00;61774.03;4993414;28;20137;-66
2021/05/06 11:24:20;;;;;;;3.10;2.10;;;;;;;-139.48;100.00;61774.03;4992589;28;20049;-66
2021/05/06 11:27:12;;;;;;;3.85;2.38;;;;;;;-139.48;100.00;61774.03;4993274;28;20045;-65
2021/05/06 11:30:34;;;;;;;5.57;3.00;;;;;;;-139.48;100.00;61774.03;4993378;28;20049;-65
2021/05/06 11:33:18;;;;;;;3.15;2.22;;;;;;;-139.48;100.00;61774.03;4992231;28;20104;-65
2021/05/06 11:36:19;;;;;;;6.60;3.00;;;;;;;-139.48;100.00;61774.03;4993336;28;20109;-65
2021/05/06 11:39:03;;;;;;;4.43;2.58;;;;;;;-139.48;100.00;61774.03;4992160;28;20050;-66
2021/05/06 11:41:47;;;;;;;4.68;2.75;;;;;;;-139.48;100.00;61774.03;4992135;28;20181;-66
2021/05/06 11:44:31;;;;;;;7.43;2.50;;;;;;;-139.48;100.00;61774.03;4978490;28;20061;-65
2021/05/06 11:47:26;;;;;;;8.18;3.88;;;;;;;-139.48;100.00;61774.03;4993373;28;20414;-66
2021/05/06 11:50:29;;;;;;;5.05;2.58;;;;;;;-139.48;100.00;61774.03;4993116;28;20069;-66
2021/05/06 11:53:15;;;;;;;4.45;2.55;;;;;;;-139.48;100.00;61774.03;4993608;28;20138;-66
2021/05/06 11:56:09;;;;;;;7.32;3.03;;;;;;;-139.48;100.00;61774.03;4993987;28;20130;-66
2021/05/06 11:58:53;;;;;;;5.78;2.97;;;;;;;-139.48;100.00;61774.03;4982440;28;20053;-66
2021/05/06 12:01:37;;;;;;;4.80;3.10;;;;;;;-139.48;100.00;61774.03;4995921;28;20093;-65
2021/05/06 12:04:22;;;;;;;4.82;3.08;;;;;;;-139.48;100.00;61774.03;4995931;28;20053;-66
2021/05/06 12:07:13;;;;;;;3.88;2.75;;;;;;;-139.48;100.00;61774.03;4996038;28;20058;-65
2021/05/06 12:10:08;;;;;;;3.67;3.08;;;;;;;-139.48;100.00;61774.03;4996705;28;20057;-65
2021/05/06 12:13:04;;;;;;;;;;;;;;;-139.48;100.00;61774.03;4996201;28;20521;-65
2021/05/06 12:15:48;;;;;;;3.00;2.60;;;;;;;-139.48;100.00;61774.03;4995993;28;19929;-65
2021/05/06 12:18:32;;;;;;;3.78;2.17;;;;;;;-139.48;100.00;61774.03;4996649;28;20058;-66
2021/05/06 12:21:16;;;;;;;3.78;2.85;;;;;;;-139.48;100.00;61774.03;4996706;28;20136;-66
2021/05/06 12:24:00;;;;;;;6.32;2.65;;;;;;;-139.48;100.00;61774.03;4995859;28;20458;-66
2021/05/06 12:26:44;;;;;;;4.70;2.50;;;;;;;-139.48;100.00;61774.03;4997033;28;20064;-66
2021/05/06 12:29:29;;;;;;;4.97;2.50;;;;;;;-139.48;100.00;61774.03;4996718;28;20177;-65
2021/05/06 12:32:20;;;;;;;2.13;1.90;;;;;;;-139.48;100.00;61774.03;4996941;28;20528;-66
2021/05/06 12:35:04;;;;;;;5.60;2.80;;;;;;;-139.48;100.00;61774.03;4995700;28;20100;-65
2021/05/06 12:37:50;;;;;;;3.90;2.40;;;;;;;-139.48;100.00;61774.03;4996569;28;20048;-64
2021/05/06 12:40:36;;;;;;;2.85;2.50;;;;;;;-139.48;100.00;61774.03;4996599;28;20076;-65
2021/05/06 12:43:26;;;;;;;4.13;2.08;;;;;;;-139.48;100.00;61774.03;4995505;28;20104;-65
2021/05/06 12:46:11;;;;;;;4.13;2.10;;;;;;;-139.48;100.00;61774.03;4995357;28;20049;-65
2021/05/06 12:48:57;;;;;;;3.17;2.28;;;;;;;-139.48;100.00;61774.03;4995434;28;20056;-65
2021/05/06 12:51:41;;;;;;;3.13;2.35;;;;;;;-139.48;100.00;61774.03;4996294;28;20273;-65
2021/05/06 12:54:34;;;;;;;2.40;2.20;;;;;;;-139.48;100.00;61774.03;4995245;28;20093;-65
2021/05/06 12:57:17;;;;;;;2.47;2.10;;;;;;;-139.48;100.00;61774.03;4994758;28;20088;-65
2021/05/06 13:00:22;;;;;;;4.00;2.53;;;;;;;-139.48;100.00;61774.03;4996187;28;20065;-65
2021/05/06 13:03:13;;;;;;;3.75;2.40;;;;;;;-139.48;100.00;61774.03;4996098;28;20181;-64
2021/05/06 13:06:05;;;;;;;2.35;2.15;;;;;;;-139.48;100.00;61774.03;4994773;28;20134;-64
2021/05/06 13:08:49;;;;;;;3.67;2.50;;;;;;;-139.48;100.00;61774.03;4993941;28;20041;-64
2021/05/06 13:11:33;;;;;;;3.95;2.00;;;;;;;-139.48;100.00;61774.03;4994962;28;20045;-64
2021/05/06 13:14:21;;;;;;;2.55;1.95;;;;;;;-139.48;100.00;61774.03;4980914;28;20199;-63
2021/05/06 13:17:21;;;;;;;3.70;1.85;;;;;;;-139.48;100.00;61774.03;4995896;28;20049;-64
2021/05/06 13:20:36;;;;;;;3.08;1.90;;;;;;;-139.48;100.00;61774.03;4994439;28;20055;-64
2021/05/06 13:23:30;;;;;;;3.83;2.03;;;;;;;-139.48;100.00;61774.03;4979404;28;20110;-63
2021/05/06 13:26:15;;;;;;;4.07;2.50;;;;;;;-139.48;100.00;61774.03;4994771;28;20056;-63
2021/05/06 13:29:04;;;;;;;3.92;2.58;;;;;;;-139.48;100.00;61774.03;4994466;28;20065;-63
2021/05/06 13:31:49;;;;;;;2.55;2.05;;;;;;;-139.48;100.00;61774.03;4994841;28;20085;-64
2021/05/06 13:34:33;;;;;;;2.70;1.85;;;;;;;-139.48;100.00;61774.03;4994272;28;20046;-63
2021/05/06 13:37:17;;;;;;;3.75;2.22;;;;;;;-139.48;100.00;61774.03;4995450;28;20084;-63
2021/05/06 13:40:03;;;;;;;3.15;1.60;;;;;;;-139.48;100.00;61774.03;4995158;28;20124;-64
2021/05/06 13:42:48;;;;;;;5.32;2.08;;;;;;;-139.48;100.00;61774.03;4995491;28;20177;-63
2021/05/06 13:45:36;;;;;;;1.75;1.52;;;;;;;-139.48;100.00;61774.03;4980592;28;20510;-64
2021/05/06 13:48:20;;;;;;;2.63;1.40;;;;;;;-139.48;100.00;61774.03;4994055;28;20166;-64
2021/05/06 13:51:05;;;;;;;2.38;1.40;;;;;;;-139.48;100.00;61774.03;4995257;28;20122;-64
2021/05/06 13:53:50;;;;;;;3.53;1.67;;;;;;;-139.48;100.00;61774.03;4994230;28;20049;-64
2021/05/06 13:56:34;;;;;;;2.90;1.73;;;;;;;-139.48;100.00;61774.03;4994310;28;20097;-63
2021/05/06 13:59:18;;;;;;;2.35;1.27;;;;;;;-139.48;100.00;61774.03;4993824;28;20050;-63
2021/05/06 14:02:02;;;;;;;3.47;1.67;;;;;;;-139.48;100.00;61774.03;4995079;28;20076;-63
2021/05/06 14:04:47;;;;;;;2.10;1.80;;;;;;;-139.48;100.00;61774.03;4993961;28;20549;-64
2021/05/06 14:07:31;;;;;;;2.10;1.77;;;;;;;-139.48;100.00;61774.03;4995085;28;20053;-64
2021/05/06 14:10:15;;;;;;;3.15;1.90;;;;;;;-139.48;100.00;61774.03;4996098;28;20081;-65
2021/05/06 14:12:58;;;;;;;3.88;2.05;;;;;;;-139.48;100.00;61774.03;4993811;28;20466;-65
2021/05/06 14:15:44;;;;;;;3.63;1.92;;;;;;;-139.48;100.00;61774.03;4994661;28;20108;-65
2021/05/06 14:18:28;;;;;;;3.05;1.88;;;;;;;-139.48;100.00;61774.03;4993286;28;20407;-65
2021/05/06 14:21:14;;;;;;;3.05;1.70;;;;;;;-139.48;100.00;61774.03;4993104;28;20045;-65
2021/05/06 14:23:58;;;;;;;4.88;2.08;;;;;;;-139.48;100.00;61774.03;4979892;28;20521;-65
2021/05/06 14:26:48;;;;;;;3.75;2.03;;;;;;;-139.48;100.00;61774.03;4994374;28;20410;-65
2021/05/06 14:29:32;;;;;;;3.10;2.10;;;;;;;-139.48;100.00;61774.03;4993646;28;20549;-65
2021/05/06 14:32:16;;;;;;;2.88;2.30;;;;;;;-139.48;100.00;61774.03;4993544;28;20081;-65
2021/05/06 14:35:00;;;;;;;2.50;1.80;;;;;;;-139.48;100.00;61774.03;4994390;28;20080;-65
2021/05/06 14:37:44;;;;;;;4.95;1.80;;;;;;;-139.48;100.00;61774.03;4993528;28;20064;-64
2021/05/06 14:40:28;;;;;;;5.15;1.83;;;;;;;-139.48;100.00;61774.03;4993633;28;20049;-65
2021/05/06 14:43:12;;;;;;;3.33;1.90;;;;;;;-139.48;100.00;61774.03;4993135;28;20052;-65
2021/05/06 14:45:57;;;;;;;3.22;1.70;;;;;;;-139.48;100.00;61774.03;4992945;28;20053;-64
2021/05/06 14:48:41;;;;;;;3.15;1.80;;;;;;;-139.48;100.00;61774.03;4992900;28;20569;-65
2021/05/06 14:51:25;;;;;;;2.95;2.05;;;;;;;-139.48;100.00;61774.03;4979637;28;20064;-65
2021/05/06 14:54:09;;;;;;;2.63;1.83;;;;;;;-139.48;100.00;61774.03;4993983;28;20049;-65
2021/05/06 14:56:53;;;;;;;5.05;1.90;;;;;;;-139.48;100.00;61774.03;4992776;28;20108;-65
2021/05/06 14:59:37;;;;;;;2.47;1.90;;;;;;;-139.48;100.00;61774.03;4992668;28;20116;-64
2021/05/06 15:02:20;;;;;;;3.78;2.20;;;;;;;-139.48;100.00;61774.03;4979159;28;20089;-65
2021/05/06 15:05:05;;;;;;;2.58;1.90;;;;;;;-139.48;100.00;61774.03;4992868;28;20187;-65
2021/05/06 15:07:49;;;;;;;3.55;1.67;;;;;;;-139.48;100.00;61774.03;4992787;28;20136;-65
2021/05/06 15:10:33;;;;;;;4.03;1.63;;;;;;;-139.48;100.00;61774.03;4992764;28;20130;-65
2021/05/06 15:13:17;;;;;;;5.45;3.13;;;;;;;-139.48;100.00;61774.03;4992759;28;20411;-65
2021/05/06 15:16:01;;;;;;;3.88;2.70;;;;;;;-139.48;100.00;61774.03;4993727;28;20096;-65
2021/05/06 15:18:45;;;;;;;3.17;1.90;;;;;;;-139.48;100.00;61774.03;4992319;28;20053;-65
2021/05/06 15:21:29;;;;;;;3.55;2.20;;;;;;;-139.48;100.00;61774.03;4993474;28;20057;-65
2021/05/06 15:24:13;;;;;;;2.35;1.70;;;;;;;-139.48;100.00;61774.03;4992898;28;20049;-65
2021/05/06 15:26:57;;;;;;;3.45;1.98;;;;;;;-139.48;100.00;61774.03;4993468;28;20069;-66
2021/05/06 15:29:41;;;;;;;3.80;2.13;;;;;;;-139.48;100.00;61774.03;4993430;28;20040;-65
2021/05/06 15:32:25;;;;;;;3.17;1.85;;;;;;;-139.48;100.00;61774.03;4993187;28;20088;-65
2021/05/06 15:35:10;;;;;;;5.13;2.00;;;;;;;-139.48;100.00;61774.03;4992715;28;20401;-65
2021/05/06 15:37:54;;;;;;;3.15;1.80;;;;;;;-139.48;100.00;61774.03;4993061;28;20534;-65